createdAt,value
2019-02-02T00:02:24.568Z,82.07
2019-02-02T00:04:54.707Z,81.87
2019-02-02T00:07:25.032Z,81.73
2019-02-02T00:09:54.951Z,81.49
2019-02-02T00:12:25.026Z,81.28
2019-02-02T00:14:55.139Z,81.90
2019-02-02T00:17:25.418Z,82.05
2019-02-02T00:19:55.919Z,82.34
2019-02-02T00:22:26.248Z,82.48
2019-02-02T00:24:56.312Z,83.03
2019-02-02T00:27:26.475Z,83.18
2019-02-02T00:29:56.811Z,82.90
2019-02-02T00:32:27.285Z,82.81
2019-02-02T00:34:57.455Z,83.09
2019-02-02T00:37:27.700Z,83.23
2019-02-02T00:39:58.026Z,83.18
2019-02-02T00:42:27.798Z,83.29
2019-02-02T00:44:58.129Z,83.28
2019-02-02T00:47:28.017Z,83.43
2019-02-02T00:49:58.099Z,83.34
2019-02-02T00:52:28.320Z,83.28
2019-02-02T00:54:58.353Z,83.38
2019-02-02T00:57:28.262Z,83.41
2019-02-02T00:59:58.364Z,83.62
2019-02-02T01:02:28.574Z,83.91
2019-02-02T01:04:58.837Z,84.15
2019-02-02T01:07:28.763Z,84.28
2019-02-02T01:09:58.750Z,84.11
2019-02-02T01:12:28.982Z,84.15
2019-02-02T01:14:59.166Z,84.27
2019-02-02T01:17:29.718Z,84.45
2019-02-02T01:19:59.850Z,84.49
2019-02-02T01:22:29.836Z,84.72
2019-02-02T01:25:00.320Z,85.06
2019-02-02T01:27:30.296Z,85.23
2019-02-02T01:30:00.340Z,85.27
2019-02-02T01:32:30.350Z,85.41
2019-02-02T01:35:00.428Z,85.53
2019-02-02T01:37:30.454Z,85.71
2019-02-02T01:40:00.769Z,85.83
2019-02-02T01:42:31.062Z,85.83
2019-02-02T01:45:01.638Z,86.12
2019-02-02T01:47:34.493Z,86.31
2019-02-02T01:50:06.754Z,86.40
2019-02-02T01:52:36.893Z,86.41
2019-02-02T01:55:08.884Z,86.52
2019-02-02T01:57:39.056Z,86.75
2019-02-02T02:00:15.321Z,86.66
2019-02-02T02:03:44.389Z,86.33
2019-02-02T02:06:14.413Z,86.54
2019-02-02T02:08:44.508Z,86.61
2019-02-02T02:11:14.780Z,86.94
2019-02-02T02:13:44.767Z,87.15
2019-02-02T02:16:15.156Z,87.21
2019-02-02T02:18:45.280Z,87.36
2019-02-02T02:21:15.320Z,87.39
2019-02-02T02:23:45.355Z,87.57
2019-02-02T02:26:15.409Z,87.71
2019-02-02T02:28:46.063Z,87.82
2019-02-02T02:31:16.559Z,88.03
2019-02-02T02:33:46.698Z,88.14
2019-02-02T02:36:16.847Z,88.21
2019-02-02T02:38:46.946Z,88.30
2019-02-02T02:41:17.228Z,88.29
2019-02-02T02:43:47.272Z,88.03
2019-02-02T02:46:17.455Z,88.19
2019-02-02T02:48:47.481Z,88.23
2019-02-02T02:51:18.299Z,88.28
2019-02-02T02:53:48.530Z,88.36
2019-02-02T02:56:18.375Z,88.50
2019-02-02T02:58:48.565Z,88.59
2019-02-02T03:01:18.882Z,88.60
2019-02-02T03:03:49.287Z,88.70
2019-02-02T03:06:19.641Z,88.74
2019-02-02T03:08:49.723Z,88.79
2019-02-02T03:11:20.197Z,88.51
2019-02-02T03:13:50.754Z,88.61
2019-02-02T03:16:21.405Z,88.67
2019-02-02T03:18:51.739Z,88.70
2019-02-02T03:21:21.895Z,88.73
2019-02-02T03:23:52.167Z,88.67
2019-02-02T03:26:22.730Z,88.69
2019-02-02T03:28:53.790Z,88.65
2019-02-02T03:31:24.206Z,88.66
2019-02-02T03:33:54.338Z,88.62
2019-02-02T03:36:24.489Z,88.63
2019-02-02T03:38:55.093Z,88.64
2019-02-02T03:41:25.471Z,88.50
2019-02-02T03:43:55.926Z,88.51
2019-02-02T03:46:26.167Z,88.41
2019-02-02T03:48:56.273Z,88.43
2019-02-02T03:51:26.360Z,87.92
2019-02-02T03:54:07.892Z,88.28
2019-02-02T03:56:28.840Z,88.22
2019-02-02T03:59:06.589Z,88.16
2019-02-02T04:01:31.227Z,88.11
2019-02-02T04:04:01.311Z,88.06
2019-02-02T04:06:31.697Z,88.09
2019-02-02T04:09:01.997Z,88.13
2019-02-02T04:11:31.888Z,88.24
2019-02-02T04:14:02.082Z,88.10
2019-02-02T04:16:32.456Z,88.17
2019-02-02T04:19:02.598Z,88.18
2019-02-02T04:21:32.603Z,88.18
2019-02-02T04:24:02.656Z,88.19
2019-02-02T04:26:32.811Z,88.27
2019-02-02T04:29:03.004Z,88.27
2019-02-02T04:31:32.935Z,88.29
2019-02-02T04:34:03.201Z,88.32
2019-02-02T04:36:33.557Z,88.37
2019-02-02T04:39:05.018Z,88.43
2019-02-02T04:41:34.984Z,88.47
2019-02-02T04:44:05.244Z,88.55
2019-02-02T04:46:35.285Z,88.54
2019-02-02T04:49:05.526Z,88.54
2019-02-02T04:51:35.590Z,88.48
2019-02-02T04:54:11.259Z,88.37
2019-02-02T04:56:41.442Z,88.34
2019-02-02T04:59:11.853Z,88.37
2019-02-02T05:01:42.210Z,88.44
2019-02-02T05:04:14.574Z,88.53
2019-02-02T05:06:45.210Z,88.48
2019-02-02T05:09:15.433Z,88.64
2019-02-02T05:11:45.993Z,88.67
2019-02-02T05:14:16.222Z,88.72
2019-02-02T05:16:46.371Z,88.67
2019-02-02T05:19:16.570Z,88.72
2019-02-02T05:21:46.864Z,88.80
2019-02-02T05:24:17.150Z,88.82
2019-02-02T05:26:47.605Z,88.89
2019-02-02T05:29:17.877Z,88.87
2019-02-02T05:31:48.134Z,89.06
2019-02-02T05:34:18.200Z,88.92
2019-02-02T05:36:48.514Z,88.82
2019-02-02T05:39:18.355Z,88.69
2019-02-02T05:41:48.506Z,88.65
2019-02-02T05:44:19.040Z,88.70
2019-02-02T05:46:49.683Z,88.73
2019-02-02T05:49:19.842Z,88.76
2019-02-02T05:51:49.926Z,88.83
2019-02-02T05:54:19.711Z,88.78
2019-02-02T05:56:53.835Z,88.09
2019-02-02T05:59:24.183Z,88.02
2019-02-02T06:01:54.386Z,88.12
2019-02-02T06:04:24.461Z,88.09
2019-02-02T06:06:54.775Z,87.79
2019-02-02T06:09:24.904Z,87.40
2019-02-02T06:11:55.161Z,87.47
2019-02-02T06:14:25.193Z,87.82
2019-02-02T06:16:55.319Z,87.93
2019-02-02T06:19:25.945Z,87.71
2019-02-02T06:21:56.230Z,87.36
2019-02-02T06:24:26.128Z,87.56
2019-02-02T06:26:56.433Z,87.62
2019-02-02T06:29:26.335Z,87.47
2019-02-02T06:31:56.460Z,87.40
2019-02-02T06:34:26.607Z,87.57
2019-02-02T06:36:56.935Z,87.60
2019-02-02T06:39:27.160Z,87.20
2019-02-02T06:41:58.705Z,87.19
2019-02-02T06:44:29.033Z,87.30
2019-02-02T06:46:59.357Z,87.51
2019-02-02T06:49:29.751Z,87.65
2019-02-02T06:51:59.856Z,87.64
2019-02-02T06:54:33.346Z,87.14
2019-02-02T06:57:02.083Z,87.15
2019-02-02T06:59:32.126Z,87.22
2019-02-02T07:02:02.567Z,86.74
2019-02-02T07:04:32.681Z,86.77
2019-02-02T07:07:02.808Z,86.78
2019-02-02T07:09:32.869Z,86.87
2019-02-02T07:12:03.021Z,87.02
2019-02-02T07:14:33.154Z,86.57
2019-02-02T07:17:03.525Z,86.74
2019-02-02T07:19:33.814Z,86.60
2019-02-02T07:22:06.926Z,86.15
2019-02-02T07:24:36.993Z,86.27
2019-02-02T07:27:07.135Z,86.48
2019-02-02T07:29:37.220Z,86.78
2019-02-02T07:32:07.349Z,86.85
2019-02-02T07:34:37.803Z,86.56
2019-02-02T07:37:42.782Z,86.35
2019-02-02T07:40:14.877Z,86.42
2019-02-02T07:42:45.187Z,86.21
2019-02-02T07:45:18.272Z,86.23
2019-02-02T07:47:49.550Z,86.50
2019-02-02T07:50:22.643Z,86.23
2019-02-02T07:52:52.828Z,85.97
2019-02-02T07:55:23.084Z,85.81
2019-02-02T07:57:55.939Z,86.24
2019-02-02T08:00:39.758Z,86.59
2019-02-02T08:03:00.636Z,86.64
2019-02-02T08:05:31.183Z,86.30
2019-02-02T08:08:01.412Z,86.38
2019-02-02T08:10:32.006Z,85.95
2019-02-02T08:13:02.074Z,85.86
2019-02-02T08:15:33.751Z,86.06
2019-02-02T08:18:03.573Z,86.35
2019-02-02T08:20:33.808Z,85.79
2019-02-02T08:23:06.803Z,85.64
2019-02-02T08:25:36.852Z,85.32
2019-02-02T08:28:18.336Z,85.71
2019-02-02T08:30:52.599Z,84.85
2019-02-02T08:33:22.079Z,84.68
2019-02-02T08:35:52.022Z,84.70
2019-02-02T08:38:23.396Z,84.41
2019-02-02T08:40:53.318Z,84.03
2019-02-02T08:43:23.384Z,83.89
2019-02-02T08:45:54.463Z,84.24
2019-02-02T08:48:24.290Z,84.12
2019-02-02T08:50:55.228Z,84.10
2019-02-02T08:53:25.118Z,84.47
2019-02-02T08:55:55.081Z,84.33
2019-02-02T08:58:25.014Z,83.87
2019-02-02T09:01:03.625Z,84.21
2019-02-02T09:03:32.765Z,84.62
2019-02-02T09:06:03.053Z,84.99
2019-02-02T09:08:34.148Z,84.55
2019-02-02T09:11:05.251Z,84.36
2019-02-02T09:13:38.021Z,84.82
2019-02-02T09:16:08.979Z,85.10
2019-02-02T09:18:41.840Z,85.26
2019-02-02T09:21:13.465Z,85.01
2019-02-02T09:23:46.554Z,84.91
2019-02-02T09:26:16.736Z,85.24
2019-02-02T09:28:49.333Z,85.50
2019-02-02T09:31:20.373Z,85.99
2019-02-02T09:33:50.223Z,86.11
2019-02-02T09:36:20.287Z,86.12
2019-02-02T09:38:50.446Z,86.22
2019-02-02T09:41:20.405Z,86.24
2019-02-02T09:43:50.209Z,86.29
2019-02-02T09:46:19.851Z,86.08
2019-02-02T09:48:50.094Z,85.93
2019-02-02T09:51:21.101Z,85.78
2019-02-02T09:53:53.511Z,85.76
2019-02-02T09:56:23.130Z,85.84
2019-02-02T09:58:52.838Z,85.77
2019-02-02T10:01:27.728Z,85.87
2019-02-02T10:03:54.303Z,85.77
2019-02-02T10:06:24.169Z,85.91
2019-02-02T10:08:53.796Z,85.88
2019-02-02T10:11:23.727Z,85.60
2019-02-02T10:13:53.613Z,85.33
2019-02-02T10:16:23.451Z,83.79
2019-02-02T10:18:53.218Z,84.42
2019-02-02T10:21:22.974Z,84.28
2019-02-02T10:23:53.321Z,83.86
2019-02-02T10:26:23.156Z,83.68
2019-02-02T10:28:52.995Z,83.41
2019-02-02T10:31:22.874Z,83.40
2019-02-02T10:33:52.778Z,83.66
2019-02-02T10:36:22.743Z,84.01
2019-02-02T10:38:53.541Z,84.21
2019-02-02T10:41:23.438Z,84.00
2019-02-02T10:43:53.442Z,83.55
2019-02-02T10:46:23.274Z,83.73
2019-02-02T10:49:00.514Z,83.71
2019-02-02T10:51:30.553Z,83.37
2019-02-02T10:54:00.543Z,83.34
2019-02-02T10:56:30.449Z,82.54
2019-02-02T10:59:00.592Z,80.46
2019-02-02T11:01:30.538Z,81.29
2019-02-02T11:04:01.600Z,80.46
2019-02-02T11:06:31.602Z,81.30
2019-02-02T11:09:01.713Z,80.78
2019-02-02T11:11:31.418Z,80.65
2019-02-02T11:14:03.017Z,80.73
2019-02-02T11:16:33.048Z,80.25
2019-02-02T11:19:03.193Z,80.41
2019-02-02T11:21:35.965Z,81.11
2019-02-02T11:24:05.809Z,81.29
2019-02-02T11:26:35.940Z,81.29
2019-02-02T11:29:06.647Z,81.38
2019-02-02T11:31:36.422Z,81.18
2019-02-02T11:34:06.943Z,81.23
2019-02-02T11:36:36.690Z,81.80
2019-02-02T11:39:06.731Z,81.44
2019-02-02T11:41:36.572Z,82.31
2019-02-02T11:44:06.409Z,81.08
2019-02-02T11:46:38.326Z,82.10
2019-02-02T11:49:08.402Z,81.32
2019-02-02T11:51:38.609Z,81.71
2019-02-02T11:54:08.419Z,81.70
2019-02-02T11:56:48.882Z,81.46
2019-02-02T11:59:19.333Z,80.61
2019-02-02T12:01:49.103Z,80.77
2019-02-02T12:04:19.205Z,81.14
2019-02-02T12:06:49.263Z,81.61
2019-02-02T12:09:19.084Z,82.32
2019-02-02T12:11:49.012Z,82.94
2019-02-02T12:14:18.823Z,81.98
2019-02-02T12:16:48.632Z,82.67
2019-02-02T12:19:18.622Z,80.87
2019-02-02T12:21:48.378Z,80.98
2019-02-02T12:24:18.451Z,81.11
2019-02-02T12:26:48.298Z,81.32
2019-02-02T12:29:18.244Z,82.16
2019-02-02T12:31:48.139Z,82.56
2019-02-02T12:34:17.935Z,81.81
2019-02-02T12:36:48.020Z,81.85
2019-02-02T12:39:17.852Z,81.86
2019-02-02T12:41:47.585Z,81.73
2019-02-02T12:44:17.394Z,82.02
2019-02-02T12:46:47.379Z,81.97
2019-02-02T12:49:17.613Z,81.40
2019-02-02T12:51:47.887Z,81.38
2019-02-02T12:54:18.684Z,81.50
2019-02-02T12:56:56.134Z,82.22
2019-02-02T12:59:33.596Z,82.53
2019-02-02T13:01:59.416Z,81.91
2019-02-02T13:04:36.637Z,82.35
2019-02-02T13:07:26.694Z,82.23
2019-02-02T13:09:57.853Z,81.90
2019-02-02T13:12:27.596Z,82.70
2019-02-02T13:14:57.641Z,82.44
2019-02-02T13:17:31.676Z,81.87
2019-02-02T13:20:07.269Z,81.96
2019-02-02T13:22:38.289Z,82.20
2019-02-02T13:25:14.244Z,82.07
2019-02-02T13:27:44.024Z,81.78
2019-02-02T13:30:22.997Z,81.29
2019-02-02T13:32:53.143Z,81.91
2019-02-02T13:35:23.967Z,82.58
2019-02-02T13:37:54.035Z,82.54
2019-02-02T13:40:24.721Z,82.71
2019-02-02T13:42:54.679Z,81.75
2019-02-02T13:45:37.643Z,82.42
2019-02-02T13:48:07.758Z,82.69
2019-02-02T13:50:38.221Z,83.09
2019-02-02T13:53:08.341Z,83.43
2019-02-02T13:56:02.574Z,84.08
2019-02-02T13:58:33.611Z,84.27
2019-02-02T14:01:03.524Z,84.07
2019-02-02T14:03:33.472Z,84.13
2019-02-02T14:06:03.173Z,83.76
2019-02-02T14:08:33.199Z,83.21
2019-02-02T14:11:03.061Z,83.34
2019-02-02T14:13:32.752Z,83.71
2019-02-02T14:16:05.496Z,83.81
2019-02-02T14:18:35.394Z,83.37
2019-02-02T14:21:05.504Z,82.62
2019-02-02T14:23:35.412Z,83.27
2019-02-02T14:26:05.563Z,83.50
2019-02-02T14:28:35.274Z,83.39
2019-02-02T14:31:05.155Z,83.02
2019-02-02T14:33:35.384Z,83.38
2019-02-02T14:36:05.940Z,83.40
2019-02-02T14:38:37.193Z,83.10
2019-02-02T14:41:07.370Z,83.53
2019-02-02T14:43:37.389Z,83.64
2019-02-02T14:46:08.734Z,83.57
2019-02-02T14:48:38.472Z,83.66
2019-02-02T14:51:26.644Z,83.74
2019-02-02T14:54:01.866Z,83.82
2019-02-02T14:56:32.653Z,83.71
2019-02-02T14:59:03.729Z,83.67
2019-02-02T15:01:36.166Z,83.87
2019-02-02T15:04:06.345Z,83.75
2019-02-02T15:06:36.676Z,83.86
2019-02-02T15:09:07.765Z,83.87
2019-02-02T15:11:38.390Z,83.81
2019-02-02T15:14:08.520Z,83.71
2019-02-02T15:16:38.961Z,83.74
2019-02-02T15:19:09.620Z,83.56
2019-02-02T15:21:40.687Z,83.60
2019-02-02T15:24:11.842Z,83.79
2019-02-02T15:26:43.735Z,83.40
2019-02-02T15:29:14.324Z,83.62
2019-02-02T15:31:45.025Z,83.56
2019-02-02T15:34:16.225Z,83.48
2019-02-02T15:36:46.954Z,82.62
2019-02-02T15:39:49.106Z,82.80
2019-02-02T15:42:21.666Z,82.92
2019-02-02T15:45:01.623Z,83.22
2019-02-02T15:47:34.411Z,83.03
2019-02-02T15:50:07.814Z,83.20
2019-02-02T15:52:38.523Z,83.48
2019-02-02T15:55:12.260Z,83.27
2019-02-02T15:57:42.970Z,83.00
2019-02-02T16:00:21.633Z,83.29
2019-02-02T16:02:52.040Z,83.18
2019-02-02T16:05:23.065Z,83.40
2019-02-02T16:07:53.482Z,83.50
2019-02-02T16:10:26.307Z,83.50
2019-02-02T16:12:56.785Z,83.46
2019-02-02T16:15:26.894Z,83.49
2019-02-02T16:17:57.369Z,83.48
2019-02-02T16:20:30.480Z,83.50
2019-02-02T16:23:00.989Z,83.36
2019-02-02T16:25:31.123Z,83.23
2019-02-02T16:28:01.488Z,83.09
2019-02-02T16:30:31.989Z,83.02
2019-02-02T16:33:03.067Z,82.86
2019-02-02T16:35:33.561Z,82.56
2019-02-02T16:38:04.160Z,82.84
2019-02-02T16:40:34.682Z,82.95
2019-02-02T16:43:05.601Z,82.95
2019-02-02T16:45:41.051Z,82.84
2019-02-02T16:48:11.267Z,82.91
2019-02-02T16:50:41.337Z,83.23
2019-02-02T16:53:12.042Z,83.11
2019-02-02T16:55:43.214Z,83.01
2019-02-02T16:58:13.270Z,83.21
2019-02-02T17:00:43.878Z,83.12
2019-02-02T17:03:14.151Z,83.10
2019-02-02T17:05:44.177Z,82.96
2019-02-02T17:08:14.355Z,83.08
2019-02-02T17:10:44.308Z,82.79
2019-02-02T17:13:15.058Z,82.84
2019-02-02T17:15:48.028Z,83.03
2019-02-02T17:18:18.778Z,83.12
2019-02-02T17:20:48.738Z,83.05
2019-02-02T17:23:19.157Z,83.09
2019-02-02T17:25:49.879Z,83.10
2019-02-02T17:28:22.187Z,83.06
2019-02-02T17:30:52.110Z,83.12
2019-02-02T17:33:22.013Z,83.31
2019-02-02T17:35:52.263Z,83.24
2019-02-02T17:38:22.314Z,83.32
2019-02-02T17:40:52.559Z,83.37
2019-02-02T17:43:22.547Z,83.52
2019-02-02T17:45:52.415Z,83.59
2019-02-02T17:48:22.242Z,83.56
2019-02-02T17:50:51.934Z,83.77
2019-02-02T17:53:22.867Z,83.74
2019-02-02T17:55:53.213Z,83.69
2019-02-02T17:58:22.936Z,83.71
2019-02-02T18:00:54.202Z,83.87
2019-02-02T18:03:24.257Z,83.50
2019-02-02T18:05:54.144Z,83.77
2019-02-02T18:08:23.957Z,83.94
2019-02-02T18:10:53.788Z,84.22
2019-02-02T18:13:24.023Z,84.42
2019-02-02T18:15:54.037Z,84.62
2019-02-02T18:18:23.893Z,84.79
2019-02-02T18:20:53.434Z,85.01
2019-02-02T18:23:23.529Z,85.26
2019-02-02T18:26:05.858Z,85.45
2019-02-02T18:28:41.648Z,85.60
2019-02-02T18:31:11.838Z,85.83
2019-02-02T18:33:41.694Z,86.01
2019-02-02T18:36:12.303Z,86.16
2019-02-02T18:38:42.269Z,86.33
2019-02-02T18:41:14.107Z,86.53
2019-02-02T18:43:44.261Z,86.65
2019-02-02T18:46:14.231Z,86.73
2019-02-02T18:48:44.316Z,86.82
2019-02-02T18:51:14.175Z,86.93
2019-02-02T18:53:44.099Z,87.08
2019-02-02T18:56:14.005Z,87.23
2019-02-02T18:58:44.225Z,87.30
2019-02-02T19:01:33.206Z,87.27
2019-02-02T19:04:04.874Z,87.45
2019-02-02T19:06:38.631Z,87.63
2019-02-02T19:09:09.521Z,87.87
2019-02-02T19:11:39.210Z,87.98
2019-02-02T19:14:09.106Z,88.01
2019-02-02T19:16:38.967Z,88.13
2019-02-02T19:19:08.888Z,88.17
2019-02-02T19:21:38.799Z,88.26
2019-02-02T19:24:09.292Z,88.37
2019-02-02T19:26:39.069Z,88.38
2019-02-02T19:29:08.971Z,88.45
2019-02-02T19:31:38.954Z,88.61
2019-02-02T19:34:08.921Z,88.56
2019-02-02T19:36:38.698Z,88.66
2019-02-02T19:39:12.926Z,88.68
2019-02-02T19:41:43.882Z,88.75
2019-02-02T19:44:13.699Z,88.86
2019-02-02T19:46:43.554Z,88.73
2019-02-02T19:49:13.708Z,88.62
2019-02-02T19:51:43.620Z,88.54
2019-02-02T19:54:16.611Z,88.68
2019-02-02T19:56:46.379Z,88.80
2019-02-02T19:59:17.438Z,88.89
2019-02-02T20:01:47.353Z,88.97
2019-02-02T20:04:16.986Z,88.98
2019-02-02T20:06:46.908Z,88.96
2019-02-02T20:09:17.596Z,89.05
2019-02-02T20:11:47.527Z,89.07
2019-02-02T20:14:23.138Z,89.03
2019-02-02T20:19:56.642Z,89.10
2019-02-02T20:22:51.826Z,89.26
2019-02-02T20:25:22.166Z,89.31
2019-02-02T20:27:52.381Z,89.50
2019-02-02T20:30:28.215Z,89.74
2019-02-02T20:32:58.266Z,89.85
2019-02-02T20:35:39.696Z,89.84
2019-02-02T20:38:00.154Z,89.94
2019-02-02T20:43:23.870Z,89.82
2019-02-02T20:45:53.667Z,89.76
2019-02-02T20:48:23.598Z,89.90
2019-02-02T20:50:53.594Z,89.93
2019-02-02T20:53:23.465Z,89.96
2019-02-02T20:55:56.601Z,89.92
2019-02-02T20:58:26.342Z,89.91
2019-02-02T21:00:56.784Z,90.00
2019-02-02T21:03:26.522Z,90.06
2019-02-02T21:05:56.744Z,90.06
2019-02-02T21:08:26.528Z,90.03
2019-02-02T21:10:56.662Z,89.86
2019-02-02T21:13:26.443Z,89.70
2019-02-02T21:15:56.814Z,89.35
2019-02-02T21:18:26.592Z,89.24
2019-02-02T21:20:56.548Z,89.10
2019-02-02T21:23:26.630Z,88.88
2019-02-02T21:25:56.529Z,88.91
2019-02-02T21:28:26.543Z,88.87
2019-02-02T21:30:56.444Z,88.91
2019-02-02T21:33:28.822Z,88.83
2019-02-02T21:36:04.036Z,88.35
2019-02-02T21:38:33.331Z,88.27
2019-02-02T21:41:03.850Z,87.99
2019-02-02T21:43:33.778Z,87.89
2019-02-02T21:46:04.466Z,87.74
2019-02-02T21:48:36.134Z,87.57
2019-02-02T21:51:05.921Z,87.68
2019-02-02T21:53:36.622Z,87.62
2019-02-02T21:56:06.573Z,87.60
2019-02-02T21:58:36.530Z,87.35
2019-02-02T22:01:06.221Z,87.44
2019-02-02T22:03:36.387Z,87.37
2019-02-02T22:06:15.486Z,87.30
2019-02-02T22:08:40.757Z,87.27
2019-02-02T22:11:10.751Z,87.43
2019-02-02T22:13:42.149Z,87.39
2019-02-02T22:16:12.202Z,87.29
2019-02-02T22:18:42.565Z,87.17
2019-02-02T22:21:12.413Z,87.20
2019-02-02T22:23:42.738Z,87.28
2019-02-02T22:26:13.030Z,87.33
2019-02-02T22:28:42.977Z,87.08
2019-02-02T22:31:12.891Z,87.22
2019-02-02T22:33:43.064Z,87.21
2019-02-02T22:36:12.700Z,87.37
2019-02-02T22:38:42.758Z,87.22
2019-02-02T22:41:12.517Z,87.34
2019-02-02T22:43:42.414Z,87.52
2019-02-02T22:46:13.446Z,87.54
2019-02-02T22:48:44.317Z,87.43
2019-02-02T22:51:14.434Z,87.50
2019-02-02T22:53:44.856Z,87.67
2019-02-02T22:56:15.300Z,87.55
2019-02-02T22:58:45.190Z,87.64
2019-02-02T23:01:18.246Z,87.63
2019-02-02T23:03:51.441Z,87.75
2019-02-02T23:06:38.958Z,88.00
2019-02-02T23:09:22.856Z,88.12
2019-02-02T23:12:13.781Z,88.17
2019-02-02T23:15:02.139Z,88.22
2019-02-02T23:17:32.146Z,88.21
2019-02-02T23:20:02.249Z,88.27
2019-02-02T23:22:32.037Z,88.34
2019-02-02T23:25:01.747Z,88.41
2019-02-02T23:27:31.449Z,88.42
2019-02-02T23:30:01.299Z,88.41
2019-02-02T23:32:31.446Z,88.51
2019-02-02T23:35:01.309Z,88.26
2019-02-02T23:37:31.000Z,88.28
2019-02-02T23:40:00.807Z,88.27
2019-02-02T23:42:30.575Z,88.29
2019-02-02T23:45:00.372Z,88.30
2019-02-02T23:47:30.201Z,88.23
2019-02-02T23:50:00.339Z,88.13
2019-02-02T23:52:30.504Z,88.08
2019-02-02T23:55:00.495Z,87.91
2019-02-02T23:57:30.157Z,87.86
